sensor_id;sensor_type;location;lat;lon;timestamp;P1;durP1;ratioP1;P2;durP2;ratioP2
10007;SDS011;5043;41.766;26.204;2023-03-16T00:02:25;34.65;;;24.48;;
10007;SDS011;5043;41.766;26.204;2023-03-16T00:04:50;29.95;;;21.02;;
10007;SDS011;5043;41.766;26.204;2023-03-16T00:07:16;34.50;;;22.63;;
10007;SDS011;5043;41.766;26.204;2023-03-16T00:09:41;30.58;;;22.77;;
10007;SDS011;5043;41.766;26.204;2023-03-16T00:12:16;33.95;;;24.65;;
10007;SDS011;5043;41.766;26.204;2023-03-16T00:14:46;41.22;;;25.52;;
10007;SDS011;5043;41.766;26.204;2023-03-16T00:17:14;41.20;;;24.77;;
10007;SDS011;5043;41.766;26.204;2023-03-16T00:19:45;43.28;;;26.58;;
10007;SDS011;5043;41.766;26.204;2023-03-16T00:22:12;37.70;;;26.25;;
10007;SDS011;5043;41.766;26.204;2023-03-16T00:24:39;34.53;;;24.77;;
10007;SDS011;5043;41.766;26.204;2023-03-16T00:27:09;31.48;;;24.00;;
10007;SDS011;5043;41.766;26.204;2023-03-16T00:29:39;27.17;;;21.63;;
10007;SDS011;5043;41.766;26.204;2023-03-16T00:32:18;25.48;;;20.92;;
10007;SDS011;5043;41.766;26.204;2023-03-16T00:34:45;24.80;;;20.80;;
10007;SDS011;5043;41.766;26.204;2023-03-16T00:37:11;28.65;;;20.73;;
10007;SDS011;5043;41.766;26.204;2023-03-16T00:39:40;29.15;;;21.83;;
10007;SDS011;5043;41.766;26.204;2023-03-16T00:42:06;29.83;;;20.35;;
10007;SDS011;5043;41.766;26.204;2023-03-16T00:44:33;33.28;;;22.17;;
10007;SDS011;5043;41.766;26.204;2023-03-16T00:46:59;38.92;;;25.15;;
10007;SDS011;5043;41.766;26.204;2023-03-16T00:49:25;40.55;;;28.17;;
10007;SDS011;5043;41.766;26.204;2023-03-16T00:51:51;42.55;;;27.23;;
10007;SDS011;5043;41.766;26.204;2023-03-16T00:54:16;46.20;;;28.08;;
10007;SDS011;5043;41.766;26.204;2023-03-16T00:56:42;39.90;;;28.15;;
10007;SDS011;5043;41.766;26.204;2023-03-16T00:59:07;45.90;;;27.83;;
10007;SDS011;5043;41.766;26.204;2023-03-16T01:01:33;35.90;;;25.60;;
10007;SDS011;5043;41.766;26.204;2023-03-16T01:03:58;39.55;;;26.35;;
10007;SDS011;5043;41.766;26.204;2023-03-16T01:06:24;42.22;;;25.65;;
10007;SDS011;5043;41.766;26.204;2023-03-16T01:08:50;41.72;;;26.58;;
10007;SDS011;5043;41.766;26.204;2023-03-16T01:11:19;36.42;;;26.30;;
10007;SDS011;5043;41.766;26.204;2023-03-16T01:13:46;38.83;;;25.38;;
10007;SDS011;5043;41.766;26.204;2023-03-16T01:16:13;38.42;;;26.85;;
10007;SDS011;5043;41.766;26.204;2023-03-16T01:18:43;48.25;;;29.25;;
10007;SDS011;5043;41.766;26.204;2023-03-16T01:21:08;43.42;;;26.58;;
10007;SDS011;5043;41.766;26.204;2023-03-16T01:23:38;36.55;;;27.10;;
10007;SDS011;5043;41.766;26.204;2023-03-16T01:26:04;38.03;;;26.42;;
10007;SDS011;5043;41.766;26.204;2023-03-16T01:28:32;44.42;;;23.90;;
10007;SDS011;5043;41.766;26.204;2023-03-16T01:30:59;39.45;;;25.30;;
10007;SDS011;5043;41.766;26.204;2023-03-16T01:33:28;35.08;;;24.17;;
10007;SDS011;5043;41.766;26.204;2023-03-16T01:35:57;31.75;;;22.63;;
10007;SDS011;5043;41.766;26.204;2023-03-16T01:38:25;33.60;;;22.38;;
10007;SDS011;5043;41.766;26.204;2023-03-16T01:40:51;29.23;;;22.67;;
10007;SDS011;5043;41.766;26.204;2023-03-16T01:43:18;30.15;;;19.77;;
10007;SDS011;5043;41.766;26.204;2023-03-16T01:48:49;29.67;;;20.40;;
10007;SDS011;5043;41.766;26.204;2023-03-16T01:54:03;30.48;;;21.63;;
10007;SDS011;5043;41.766;26.204;2023-03-16T01:56:35;29.38;;;22.42;;
10007;SDS011;5043;41.766;26.204;2023-03-16T01:59:06;32.95;;;24.45;;
10007;SDS011;5043;41.766;26.204;2023-03-16T02:01:37;33.90;;;24.58;;
10007;SDS011;5043;41.766;26.204;2023-03-16T02:04:06;25.33;;;20.45;;
10007;SDS011;5043;41.766;26.204;2023-03-16T02:06:53;26.15;;;19.73;;
10007;SDS011;5043;41.766;26.204;2023-03-16T02:09:20;25.00;;;19.98;;
10007;SDS011;5043;41.766;26.204;2023-03-16T02:11:46;32.03;;;21.20;;
10007;SDS011;5043;41.766;26.204;2023-03-16T02:14:12;37.50;;;23.25;;
10007;SDS011;5043;41.766;26.204;2023-03-16T02:16:38;35.40;;;23.92;;
10007;SDS011;5043;41.766;26.204;2023-03-16T02:19:10;32.70;;;22.65;;
10007;SDS011;5043;41.766;26.204;2023-03-16T02:21:54;33.88;;;22.63;;
10007;SDS011;5043;41.766;26.204;2023-03-16T02:24:26;32.30;;;21.80;;
10007;SDS011;5043;41.766;26.204;2023-03-16T02:26:54;32.58;;;21.75;;
10007;SDS011;5043;41.766;26.204;2023-03-16T02:32:07;34.83;;;25.20;;
10007;SDS011;5043;41.766;26.204;2023-03-16T02:34:34;30.63;;;22.38;;
10007;SDS011;5043;41.766;26.204;2023-03-16T02:37:00;34.30;;;22.90;;
10007;SDS011;5043;41.766;26.204;2023-03-16T02:39:27;26.48;;;20.27;;
10007;SDS011;5043;41.766;26.204;2023-03-16T02:41:52;28.05;;;20.95;;
10007;SDS011;5043;41.766;26.204;2023-03-16T02:44:24;27.98;;;21.02;;
10007;SDS011;5043;41.766;26.204;2023-03-16T02:46:53;27.98;;;21.85;;
10007;SDS011;5043;41.766;26.204;2023-03-16T02:49:24;28.98;;;21.20;;
10007;SDS011;5043;41.766;26.204;2023-03-16T02:51:53;25.98;;;19.42;;
10007;SDS011;5043;41.766;26.204;2023-03-16T02:54:21;26.80;;;19.88;;
10007;SDS011;5043;41.766;26.204;2023-03-16T02:56:47;23.67;;;19.17;;
10007;SDS011;5043;41.766;26.204;2023-03-16T02:59:12;26.83;;;20.58;;
10007;SDS011;5043;41.766;26.204;2023-03-16T03:01:37;32.13;;;21.55;;
10007;SDS011;5043;41.766;26.204;2023-03-16T03:04:03;23.67;;;18.98;;
10007;SDS011;5043;41.766;26.204;2023-03-16T03:06:29;26.45;;;20.55;;
10007;SDS011;5043;41.766;26.204;2023-03-16T03:08:56;26.58;;;20.23;;
10007;SDS011;5043;41.766;26.204;2023-03-16T03:11:22;27.50;;;20.33;;
10007;SDS011;5043;41.766;26.204;2023-03-16T03:13:48;28.48;;;20.35;;
10007;SDS011;5043;41.766;26.204;2023-03-16T03:16:13;27.73;;;21.05;;
10007;SDS011;5043;41.766;26.204;2023-03-16T03:18:39;27.60;;;20.77;;
10007;SDS011;5043;41.766;26.204;2023-03-16T03:21:05;30.80;;;22.58;;
10007;SDS011;5043;41.766;26.204;2023-03-16T03:23:31;28.02;;;21.67;;
10007;SDS011;5043;41.766;26.204;2023-03-16T03:25:58;31.30;;;22.65;;
10007;SDS011;5043;41.766;26.204;2023-03-16T03:28:24;32.70;;;24.55;;
10007;SDS011;5043;41.766;26.204;2023-03-16T03:30:50;35.55;;;26.50;;
10007;SDS011;5043;41.766;26.204;2023-03-16T03:33:16;35.85;;;26.02;;
10007;SDS011;5043;41.766;26.204;2023-03-16T03:35:42;34.95;;;26.17;;
10007;SDS011;5043;41.766;26.204;2023-03-16T03:38:08;32.35;;;24.70;;
10007;SDS011;5043;41.766;26.204;2023-03-16T03:40:33;32.95;;;24.35;;
10007;SDS011;5043;41.766;26.204;2023-03-16T03:42:59;35.08;;;24.85;;
10007;SDS011;5043;41.766;26.204;2023-03-16T03:45:25;32.95;;;24.70;;
10007;SDS011;5043;41.766;26.204;2023-03-16T03:47:51;35.10;;;24.65;;
10007;SDS011;5043;41.766;26.204;2023-03-16T03:50:16;33.17;;;24.25;;
10007;SDS011;5043;41.766;26.204;2023-03-16T03:52:42;29.60;;;23.27;;
10007;SDS011;5043;41.766;26.204;2023-03-16T03:55:08;29.40;;;23.75;;
10007;SDS011;5043;41.766;26.204;2023-03-16T03:57:34;31.63;;;23.20;;
10007;SDS011;5043;41.766;26.204;2023-03-16T03:59:59;31.83;;;24.00;;
10007;SDS011;5043;41.766;26.204;2023-03-16T04:02:25;38.58;;;25.35;;
10007;SDS011;5043;41.766;26.204;2023-03-16T04:04:50;28.80;;;22.38;;
10007;SDS011;5043;41.766;26.204;2023-03-16T04:07:16;30.92;;;23.75;;
10007;SDS011;5043;41.766;26.204;2023-03-16T04:09:41;32.13;;;22.65;;
10007;SDS011;5043;41.766;26.204;2023-03-16T04:12:07;26.65;;;21.58;;
10007;SDS011;5043;41.766;26.204;2023-03-16T04:14:32;28.10;;;21.50;;
10007;SDS011;5043;41.766;26.204;2023-03-16T04:16:59;30.50;;;23.15;;
10007;SDS011;5043;41.766;26.204;2023-03-16T04:19:24;28.77;;;21.83;;
10007;SDS011;5043;41.766;26.204;2023-03-16T04:21:50;29.90;;;22.23;;
10007;SDS011;5043;41.766;26.204;2023-03-16T04:24:16;31.60;;;22.98;;
10007;SDS011;5043;41.766;26.204;2023-03-16T04:26:43;35.63;;;23.73;;
10007;SDS011;5043;41.766;26.204;2023-03-16T04:29:12;28.17;;;21.77;;
10007;SDS011;5043;41.766;26.204;2023-03-16T04:31:42;30.55;;;22.85;;
10007;SDS011;5043;41.766;26.204;2023-03-16T04:34:07;30.17;;;23.75;;
10007;SDS011;5043;41.766;26.204;2023-03-16T04:36:33;32.25;;;24.98;;
10007;SDS011;5043;41.766;26.204;2023-03-16T04:38:59;32.70;;;25.10;;
10007;SDS011;5043;41.766;26.204;2023-03-16T04:41:26;36.42;;;26.63;;
10007;SDS011;5043;41.766;26.204;2023-03-16T04:43:56;35.33;;;25.63;;
10007;SDS011;5043;41.766;26.204;2023-03-16T04:46:23;37.78;;;27.90;;
10007;SDS011;5043;41.766;26.204;2023-03-16T04:48:50;35.38;;;26.00;;
10007;SDS011;5043;41.766;26.204;2023-03-16T04:51:17;35.15;;;26.80;;
10007;SDS011;5043;41.766;26.204;2023-03-16T04:53:46;31.60;;;26.45;;
10007;SDS011;5043;41.766;26.204;2023-03-16T04:56:12;35.85;;;26.60;;
10007;SDS011;5043;41.766;26.204;2023-03-16T04:58:45;34.58;;;25.38;;
10007;SDS011;5043;41.766;26.204;2023-03-16T05:01:14;31.13;;;25.45;;
10007;SDS011;5043;41.766;26.204;2023-03-16T05:03:42;34.90;;;25.27;;
10007;SDS011;5043;41.766;26.204;2023-03-16T05:06:09;31.70;;;24.05;;
10007;SDS011;5043;41.766;26.204;2023-03-16T05:08:39;31.88;;;23.52;;
10007;SDS011;5043;41.766;26.204;2023-03-16T05:11:15;32.75;;;23.27;;
10007;SDS011;5043;41.766;26.204;2023-03-16T05:13:45;31.50;;;24.50;;
10007;SDS011;5043;41.766;26.204;2023-03-16T05:16:10;29.98;;;24.40;;
10007;SDS011;5043;41.766;26.204;2023-03-16T05:18:36;26.85;;;23.10;;
10007;SDS011;5043;41.766;26.204;2023-03-16T05:21:01;29.65;;;23.35;;
10007;SDS011;5043;41.766;26.204;2023-03-16T05:23:27;37.63;;;29.70;;
10007;SDS011;5043;41.766;26.204;2023-03-16T05:25:52;29.67;;;23.55;;
10007;SDS011;5043;41.766;26.204;2023-03-16T05:28:47;31.33;;;25.17;;
10007;SDS011;5043;41.766;26.204;2023-03-16T05:31:59;30.83;;;25.33;;
10007;SDS011;5043;41.766;26.204;2023-03-16T05:34:25;32.30;;;24.83;;
10007;SDS011;5043;41.766;26.204;2023-03-16T05:36:51;32.47;;;27.08;;
10007;SDS011;5043;41.766;26.204;2023-03-16T05:39:16;39.40;;;27.17;;
10007;SDS011;5043;41.766;26.204;2023-03-16T05:41:42;42.28;;;27.65;;
10007;SDS011;5043;41.766;26.204;2023-03-16T05:44:08;36.72;;;26.48;;
10007;SDS011;5043;41.766;26.204;2023-03-16T05:46:34;36.58;;;28.00;;
10007;SDS011;5043;41.766;26.204;2023-03-16T05:49:00;45.15;;;32.78;;
10007;SDS011;5043;41.766;26.204;2023-03-16T05:51:26;45.90;;;31.48;;
10007;SDS011;5043;41.766;26.204;2023-03-16T05:53:52;47.10;;;33.55;;
10007;SDS011;5043;41.766;26.204;2023-03-16T05:56:24;39.72;;;30.35;;
10007;SDS011;5043;41.766;26.204;2023-03-16T05:58:51;49.05;;;31.75;;
10007;SDS011;5043;41.766;26.204;2023-03-16T06:01:18;43.42;;;30.42;;
10007;SDS011;5043;41.766;26.204;2023-03-16T06:03:46;47.58;;;30.85;;
10007;SDS011;5043;41.766;26.204;2023-03-16T06:06:13;41.05;;;28.15;;
10007;SDS011;5043;41.766;26.204;2023-03-16T06:08:39;41.85;;;28.75;;
10007;SDS011;5043;41.766;26.204;2023-03-16T06:11:05;40.90;;;27.77;;
10007;SDS011;5043;41.766;26.204;2023-03-16T06:13:30;47.45;;;27.52;;
10007;SDS011;5043;41.766;26.204;2023-03-16T06:15:56;38.38;;;26.08;;
10007;SDS011;5043;41.766;26.204;2023-03-16T06:18:21;35.65;;;25.58;;
10007;SDS011;5043;41.766;26.204;2023-03-16T06:20:47;35.85;;;23.67;;
10007;SDS011;5043;41.766;26.204;2023-03-16T06:23:12;20.42;;;16.05;;
10007;SDS011;5043;41.766;26.204;2023-03-16T06:25:38;34.78;;;24.20;;
10007;SDS011;5043;41.766;26.204;2023-03-16T06:28:04;19.98;;;14.32;;
10007;SDS011;5043;41.766;26.204;2023-03-16T06:30:30;15.13;;;10.55;;
10007;SDS011;5043;41.766;26.204;2023-03-16T06:32:56;13.18;;;10.77;;
10007;SDS011;5043;41.766;26.204;2023-03-16T06:35:24;12.63;;;10.25;;
10007;SDS011;5043;41.766;26.204;2023-03-16T06:37:49;13.68;;;11.57;;
10007;SDS011;5043;41.766;26.204;2023-03-16T06:40:15;18.55;;;12.98;;
10007;SDS011;5043;41.766;26.204;2023-03-16T06:42:41;20.77;;;13.77;;
10007;SDS011;5043;41.766;26.204;2023-03-16T06:45:06;18.60;;;13.68;;
10007;SDS011;5043;41.766;26.204;2023-03-16T06:47:32;18.33;;;12.82;;
10007;SDS011;5043;41.766;26.204;2023-03-16T06:49:58;13.43;;;11.13;;
10007;SDS011;5043;41.766;26.204;2023-03-16T06:52:23;16.55;;;12.93;;
10007;SDS011;5043;41.766;26.204;2023-03-16T06:54:48;14.52;;;11.98;;
10007;SDS011;5043;41.766;26.204;2023-03-16T06:57:14;16.42;;;12.68;;
10007;SDS011;5043;41.766;26.204;2023-03-16T06:59:39;20.20;;;14.98;;
10007;SDS011;5043;41.766;26.204;2023-03-16T07:02:05;22.35;;;16.30;;
10007;SDS011;5043;41.766;26.204;2023-03-16T07:04:31;22.85;;;17.75;;
10007;SDS011;5043;41.766;26.204;2023-03-16T07:06:56;24.05;;;18.13;;
10007;SDS011;5043;41.766;26.204;2023-03-16T07:09:22;26.35;;;16.80;;
10007;SDS011;5043;41.766;26.204;2023-03-16T07:11:48;22.77;;;15.55;;
10007;SDS011;5043;41.766;26.204;2023-03-16T07:14:13;22.63;;;15.82;;
10007;SDS011;5043;41.766;26.204;2023-03-16T07:16:39;27.48;;;19.52;;
10007;SDS011;5043;41.766;26.204;2023-03-16T07:19:05;18.05;;;14.85;;
10007;SDS011;5043;41.766;26.204;2023-03-16T07:21:30;17.38;;;14.73;;
10007;SDS011;5043;41.766;26.204;2023-03-16T07:24:03;19.25;;;14.35;;
10007;SDS011;5043;41.766;26.204;2023-03-16T07:26:29;17.65;;;13.32;;
10007;SDS011;5043;41.766;26.204;2023-03-16T07:28:57;13.48;;;12.15;;
10007;SDS011;5043;41.766;26.204;2023-03-16T07:31:23;17.42;;;13.30;;
10007;SDS011;5043;41.766;26.204;2023-03-16T07:33:49;24.25;;;16.20;;
10007;SDS011;5043;41.766;26.204;2023-03-16T07:36:14;16.95;;;14.02;;
10007;SDS011;5043;41.766;26.204;2023-03-16T07:38:40;22.60;;;14.85;;
10007;SDS011;5043;41.766;26.204;2023-03-16T07:41:06;17.55;;;14.15;;
10007;SDS011;5043;41.766;26.204;2023-03-16T07:43:32;19.17;;;14.88;;
10007;SDS011;5043;41.766;26.204;2023-03-16T07:45:58;17.52;;;13.93;;
10007;SDS011;5043;41.766;26.204;2023-03-16T07:48:24;16.80;;;13.10;;
10007;SDS011;5043;41.766;26.204;2023-03-16T07:50:50;19.15;;;12.98;;
10007;SDS011;5043;41.766;26.204;2023-03-16T07:53:16;15.13;;;12.30;;
10007;SDS011;5043;41.766;26.204;2023-03-16T07:55:42;15.45;;;11.90;;
10007;SDS011;5043;41.766;26.204;2023-03-16T07:58:09;16.70;;;12.05;;
10007;SDS011;5043;41.766;26.204;2023-03-16T08:00:35;16.05;;;12.90;;
10007;SDS011;5043;41.766;26.204;2023-03-16T08:03:01;18.70;;;14.35;;
10007;SDS011;5043;41.766;26.204;2023-03-16T08:05:28;16.90;;;12.77;;
10007;SDS011;5043;41.766;26.204;2023-03-16T08:07:56;15.00;;;11.32;;
10007;SDS011;5043;41.766;26.204;2023-03-16T08:10:23;16.30;;;11.90;;
10007;SDS011;5043;41.766;26.204;2023-03-16T08:12:49;14.90;;;12.18;;
10007;SDS011;5043;41.766;26.204;2023-03-16T08:15:15;15.20;;;11.48;;
10007;SDS011;5043;41.766;26.204;2023-03-16T08:17:41;13.80;;;10.77;;
10007;SDS011;5043;41.766;26.204;2023-03-16T08:20:07;12.30;;;10.07;;
10007;SDS011;5043;41.766;26.204;2023-03-16T08:22:34;12.27;;;10.98;;
10007;SDS011;5043;41.766;26.204;2023-03-16T08:25:01;11.48;;;9.70;;
10007;SDS011;5043;41.766;26.204;2023-03-16T08:27:28;11.02;;;9.93;;
10007;SDS011;5043;41.766;26.204;2023-03-16T08:29:53;11.73;;;9.75;;
10007;SDS011;5043;41.766;26.204;2023-03-16T08:32:19;16.20;;;10.88;;
10007;SDS011;5043;41.766;26.204;2023-03-16T08:34:45;12.80;;;10.75;;
10007;SDS011;5043;41.766;26.204;2023-03-16T08:37:11;12.55;;;9.77;;
10007;SDS011;5043;41.766;26.204;2023-03-16T08:39:41;16.95;;;10.75;;
10007;SDS011;5043;41.766;26.204;2023-03-16T08:42:08;10.75;;;8.85;;
10007;SDS011;5043;41.766;26.204;2023-03-16T08:44:34;12.35;;;8.88;;
10007;SDS011;5043;41.766;26.204;2023-03-16T08:47:01;11.35;;;9.20;;
10007;SDS011;5043;41.766;26.204;2023-03-16T08:49:30;8.68;;;7.78;;
10007;SDS011;5043;41.766;26.204;2023-03-16T08:51:57;11.13;;;9.10;;
10007;SDS011;5043;41.766;26.204;2023-03-16T08:54:24;13.80;;;9.50;;
10007;SDS011;5043;41.766;26.204;2023-03-16T08:56:50;10.93;;;9.82;;
10007;SDS011;5043;41.766;26.204;2023-03-16T08:59:15;10.73;;;9.00;;
10007;SDS011;5043;41.766;26.204;2023-03-16T09:01:41;10.27;;;8.68;;
10007;SDS011;5043;41.766;26.204;2023-03-16T09:04:07;20.00;;;12.27;;
10007;SDS011;5043;41.766;26.204;2023-03-16T09:06:33;10.00;;;9.02;;
10007;SDS011;5043;41.766;26.204;2023-03-16T09:09:00;9.85;;;8.82;;
10007;SDS011;5043;41.766;26.204;2023-03-16T09:11:25;14.57;;;9.75;;
10007;SDS011;5043;41.766;26.204;2023-03-16T09:13:54;24.00;;;17.83;;
10007;SDS011;5043;41.766;26.204;2023-03-16T09:16:20;12.65;;;10.63;;
10007;SDS011;5043;41.766;26.204;2023-03-16T09:18:49;10.40;;;9.20;;
10007;SDS011;5043;41.766;26.204;2023-03-16T09:21:15;9.75;;;8.43;;
10007;SDS011;5043;41.766;26.204;2023-03-16T09:23:41;12.25;;;9.00;;
10007;SDS011;5043;41.766;26.204;2023-03-16T09:26:07;8.38;;;7.25;;
10007;SDS011;5043;41.766;26.204;2023-03-16T09:28:34;9.93;;;7.38;;
10007;SDS011;5043;41.766;26.204;2023-03-16T09:31:00;9.98;;;7.13;;
10007;SDS011;5043;41.766;26.204;2023-03-16T09:33:27;11.15;;;7.45;;
10007;SDS011;5043;41.766;26.204;2023-03-16T09:35:54;15.98;;;10.63;;
10007;SDS011;5043;41.766;26.204;2023-03-16T09:38:21;10.00;;;6.97;;
10007;SDS011;5043;41.766;26.204;2023-03-16T09:40:54;12.90;;;7.35;;
10007;SDS011;5043;41.766;26.204;2023-03-16T09:46:17;7.68;;;6.65;;
10007;SDS011;5043;41.766;26.204;2023-03-16T09:48:48;7.47;;;6.03;;
10007;SDS011;5043;41.766;26.204;2023-03-16T09:51:19;7.63;;;5.97;;
10007;SDS011;5043;41.766;26.204;2023-03-16T09:54:00;8.38;;;5.82;;
10007;SDS011;5043;41.766;26.204;2023-03-16T09:56:32;9.10;;;6.28;;
10007;SDS011;5043;41.766;26.204;2023-03-16T09:59:11;7.03;;;6.32;;
10007;SDS011;5043;41.766;26.204;2023-03-16T10:04:18;10.82;;;6.45;;
10007;SDS011;5043;41.766;26.204;2023-03-16T10:07:00;11.00;;;7.65;;
10007;SDS011;5043;41.766;26.204;2023-03-16T10:09:39;8.32;;;6.25;;
10007;SDS011;5043;41.766;26.204;2023-03-16T10:12:11;10.75;;;6.07;;
10007;SDS011;5043;41.766;26.204;2023-03-16T10:17:05;10.68;;;7.50;;
10007;SDS011;5043;41.766;26.204;2023-03-16T10:22:47;11.05;;;7.88;;
10007;SDS011;5043;41.766;26.204;2023-03-16T10:27:59;12.27;;;8.15;;
10007;SDS011;5043;41.766;26.204;2023-03-16T10:30:30;11.82;;;7.55;;
10007;SDS011;5043;41.766;26.204;2023-03-16T10:33:02;8.00;;;6.40;;
10007;SDS011;5043;41.766;26.204;2023-03-16T10:43:45;5.88;;;4.75;;
10007;SDS011;5043;41.766;26.204;2023-03-16T10:46:13;7.00;;;5.68;;
10007;SDS011;5043;41.766;26.204;2023-03-16T10:48:39;5.13;;;4.63;;
10007;SDS011;5043;41.766;26.204;2023-03-16T10:51:10;7.20;;;6.22;;
10007;SDS011;5043;41.766;26.204;2023-03-16T10:53:42;9.68;;;6.47;;
10007;SDS011;5043;41.766;26.204;2023-03-16T10:56:09;8.85;;;6.18;;
10007;SDS011;5043;41.766;26.204;2023-03-16T10:58:41;11.48;;;6.50;;
10007;SDS011;5043;41.766;26.204;2023-03-16T11:01:26;7.53;;;5.95;;
10007;SDS011;5043;41.766;26.204;2023-03-16T11:03:54;8.00;;;6.13;;
10007;SDS011;5043;41.766;26.204;2023-03-16T11:06:25;13.48;;;6.80;;
10007;SDS011;5043;41.766;26.204;2023-03-16T11:09:01;9.15;;;6.05;;
10007;SDS011;5043;41.766;26.204;2023-03-16T11:11:33;11.93;;;7.78;;
10007;SDS011;5043;41.766;26.204;2023-03-16T11:14:01;11.27;;;7.10;;
10007;SDS011;5043;41.766;26.204;2023-03-16T11:22:25;10.27;;;7.45;;
10007;SDS011;5043;41.766;26.204;2023-03-16T11:27:41;10.07;;;6.97;;
10007;SDS011;5043;41.766;26.204;2023-03-16T11:30:27;6.65;;;5.60;;
10007;SDS011;5043;41.766;26.204;2023-03-16T11:32:59;8.63;;;6.45;;
10007;SDS011;5043;41.766;26.204;2023-03-16T11:35:28;9.73;;;6.50;;
10007;SDS011;5043;41.766;26.204;2023-03-16T11:43:49;9.88;;;6.38;;
10007;SDS011;5043;41.766;26.204;2023-03-16T11:46:22;6.28;;;5.68;;
10007;SDS011;5043;41.766;26.204;2023-03-16T11:51:56;6.78;;;6.05;;
10007;SDS011;5043;41.766;26.204;2023-03-16T11:54:34;9.93;;;6.35;;
10007;SDS011;5043;41.766;26.204;2023-03-16T11:57:21;8.38;;;6.40;;
10007;SDS011;5043;41.766;26.204;2023-03-16T12:05:46;6.25;;;5.25;;
10007;SDS011;5043;41.766;26.204;2023-03-16T12:11:04;9.85;;;6.53;;
10007;SDS011;5043;41.766;26.204;2023-03-16T12:19:21;6.45;;;4.57;;
10007;SDS011;5043;41.766;26.204;2023-03-16T12:22:06;3.95;;;3.40;;
10007;SDS011;5043;41.766;26.204;2023-03-16T12:24:42;3.75;;;3.13;;
10007;SDS011;5043;41.766;26.204;2023-03-16T12:27:11;6.13;;;3.85;;
10007;SDS011;5043;41.766;26.204;2023-03-16T12:32:10;5.55;;;3.22;;
10007;SDS011;5043;41.766;26.204;2023-03-16T12:34:45;4.18;;;3.58;;
10007;SDS011;5043;41.766;26.204;2023-03-16T12:40:41;7.82;;;4.43;;
10007;SDS011;5043;41.766;26.204;2023-03-16T12:50:58;3.05;;;2.60;;
10007;SDS011;5043;41.766;26.204;2023-03-16T12:53:37;6.18;;;4.20;;
10007;SDS011;5043;41.766;26.204;2023-03-16T12:56:11;4.35;;;3.75;;
10007;SDS011;5043;41.766;26.204;2023-03-16T12:58:47;7.10;;;5.35;;
10007;SDS011;5043;41.766;26.204;2023-03-16T13:01:17;5.50;;;4.28;;
10007;SDS011;5043;41.766;26.204;2023-03-16T13:03:49;3.83;;;3.33;;
10007;SDS011;5043;41.766;26.204;2023-03-16T13:06:22;3.38;;;3.00;;
10007;SDS011;5043;41.766;26.204;2023-03-16T13:08:58;6.22;;;3.00;;
10007;SDS011;5043;41.766;26.204;2023-03-16T13:11:25;4.53;;;3.20;;
10007;SDS011;5043;41.766;26.204;2023-03-16T13:16:31;8.77;;;5.60;;
10007;SDS011;5043;41.766;26.204;2023-03-16T13:19:00;4.30;;;3.47;;
10007;SDS011;5043;41.766;26.204;2023-03-16T13:22:02;5.05;;;3.50;;
10007;SDS011;5043;41.766;26.204;2023-03-16T13:24:48;6.53;;;4.57;;
10007;SDS011;5043;41.766;26.204;2023-03-16T13:29:54;2.92;;;2.45;;
10007;SDS011;5043;41.766;26.204;2023-03-16T13:32:22;3.67;;;2.60;;
10007;SDS011;5043;41.766;26.204;2023-03-16T13:34:55;3.03;;;2.50;;
10007;SDS011;5043;41.766;26.204;2023-03-16T13:37:22;1.90;;;1.80;;
10007;SDS011;5043;41.766;26.204;2023-03-16T13:39:56;4.38;;;3.38;;
10007;SDS011;5043;41.766;26.204;2023-03-16T13:42:30;3.40;;;2.45;;
10007;SDS011;5043;41.766;26.204;2023-03-16T13:44:58;2.65;;;2.45;;
10007;SDS011;5043;41.766;26.204;2023-03-16T13:47:33;3.17;;;2.00;;
10007;SDS011;5043;41.766;26.204;2023-03-16T13:50:04;2.53;;;2.33;;
10007;SDS011;5043;41.766;26.204;2023-03-16T13:52:33;3.70;;;2.78;;
10007;SDS011;5043;41.766;26.204;2023-03-16T13:55:02;4.75;;;3.28;;
10007;SDS011;5043;41.766;26.204;2023-03-16T13:57:40;3.75;;;3.05;;
10007;SDS011;5043;41.766;26.204;2023-03-16T14:02:41;5.40;;;4.18;;
10007;SDS011;5043;41.766;26.204;2023-03-16T14:05:09;6.50;;;4.90;;
10007;SDS011;5043;41.766;26.204;2023-03-16T14:07:45;9.13;;;4.88;;
10007;SDS011;5043;41.766;26.204;2023-03-16T14:10:13;12.27;;;6.35;;
10007;SDS011;5043;41.766;26.204;2023-03-16T14:12:51;12.50;;;5.80;;
10007;SDS011;5043;41.766;26.204;2023-03-16T14:15:20;13.90;;;6.47;;
10007;SDS011;5043;41.766;26.204;2023-03-16T14:18:10;9.15;;;5.55;;
10007;SDS011;5043;41.766;26.204;2023-03-16T14:20:59;10.18;;;5.22;;
10007;SDS011;5043;41.766;26.204;2023-03-16T14:23:44;11.77;;;7.57;;
10007;SDS011;5043;41.766;26.204;2023-03-16T14:26:26;16.88;;;9.90;;
10007;SDS011;5043;41.766;26.204;2023-03-16T14:29:13;9.07;;;6.15;;
10007;SDS011;5043;41.766;26.204;2023-03-16T14:31:55;7.22;;;4.80;;
10007;SDS011;5043;41.766;26.204;2023-03-16T14:34:29;7.60;;;4.63;;
10007;SDS011;5043;41.766;26.204;2023-03-16T14:37:04;8.63;;;6.18;;
10007;SDS011;5043;41.766;26.204;2023-03-16T14:39:32;4.97;;;3.85;;
10007;SDS011;5043;41.766;26.204;2023-03-16T14:42:01;18.48;;;7.78;;
10007;SDS011;5043;41.766;26.204;2023-03-16T14:44:31;6.28;;;4.13;;
10007;SDS011;5043;41.766;26.204;2023-03-16T14:47:00;9.32;;;5.22;;
10007;SDS011;5043;41.766;26.204;2023-03-16T14:49:42;15.00;;;9.50;;
10007;SDS011;5043;41.766;26.204;2023-03-16T14:54:51;6.63;;;5.57;;
10007;SDS011;5043;41.766;26.204;2023-03-16T14:57:19;4.75;;;3.55;;
10007;SDS011;5043;41.766;26.204;2023-03-16T14:59:48;8.65;;;6.22;;
10007;SDS011;5043;41.766;26.204;2023-03-16T15:02:17;5.60;;;3.63;;
10007;SDS011;5043;41.766;26.204;2023-03-16T15:04:44;9.02;;;3.22;;
10007;SDS011;5043;41.766;26.204;2023-03-16T15:07:20;4.93;;;3.55;;
10007;SDS011;5043;41.766;26.204;2023-03-16T15:09:46;6.50;;;3.58;;
10007;SDS011;5043;41.766;26.204;2023-03-16T15:12:17;6.32;;;3.85;;
10007;SDS011;5043;41.766;26.204;2023-03-16T15:14:44;7.10;;;4.15;;
10007;SDS011;5043;41.766;26.204;2023-03-16T15:17:29;4.10;;;3.65;;
10007;SDS011;5043;41.766;26.204;2023-03-16T15:19:55;6.53;;;4.85;;
10007;SDS011;5043;41.766;26.204;2023-03-16T15:22:23;10.73;;;6.25;;
10007;SDS011;5043;41.766;26.204;2023-03-16T15:24:53;8.30;;;5.85;;
10007;SDS011;5043;41.766;26.204;2023-03-16T15:27:22;10.35;;;6.80;;
10007;SDS011;5043;41.766;26.204;2023-03-16T15:29:53;8.02;;;5.82;;
10007;SDS011;5043;41.766;26.204;2023-03-16T15:32:23;7.25;;;4.97;;
10007;SDS011;5043;41.766;26.204;2023-03-16T15:34:49;6.00;;;3.95;;
10007;SDS011;5043;41.766;26.204;2023-03-16T15:37:15;10.43;;;5.15;;
10007;SDS011;5043;41.766;26.204;2023-03-16T15:39:44;5.00;;;4.13;;
10007;SDS011;5043;41.766;26.204;2023-03-16T15:42:14;9.57;;;4.85;;
10007;SDS011;5043;41.766;26.204;2023-03-16T15:44:41;10.73;;;5.00;;
10007;SDS011;5043;41.766;26.204;2023-03-16T15:47:08;10.27;;;5.55;;
10007;SDS011;5043;41.766;26.204;2023-03-16T15:49:35;6.72;;;4.10;;
10007;SDS011;5043;41.766;26.204;2023-03-16T15:52:03;6.97;;;3.95;;
10007;SDS011;5043;41.766;26.204;2023-03-16T15:54:34;8.25;;;5.10;;
10007;SDS011;5043;41.766;26.204;2023-03-16T15:57:01;5.95;;;3.80;;
10007;SDS011;5043;41.766;26.204;2023-03-16T15:59:29;7.82;;;3.63;;
10007;SDS011;5043;41.766;26.204;2023-03-16T16:02:00;6.75;;;3.40;;
10007;SDS011;5043;41.766;26.204;2023-03-16T16:04:27;8.48;;;4.60;;
10007;SDS011;5043;41.766;26.204;2023-03-16T16:06:52;6.17;;;3.80;;
10007;SDS011;5043;41.766;26.204;2023-03-16T16:09:19;5.65;;;3.33;;